Terminal Aerodrome Forecast
Issued by NWS

Home | Current Version | Previous Version | Text Only | Print | Product List | Glossary On
Versions: 1 2 3 4 5 6 7 8 9 10 11 12 13 14 15 16 17 18 19 20 21 22 23 24 25 26 27 28 29 30 31
615
FTUS43 KDLH 250005 AAA
TAFHYR
TAF AMD
KHYR 250005Z 2500/2524 05009KT 2SM -SN BR FEW010 OVC017
     FM250600 VRB03KT 3/4SM -SN OVC010
     FM251000 25007KT P6SM VCSH OVC008
     FM251100 26008KT P6SM OVC008
     FM251400 25010G22KT P6SM BKN008
     FM252100 25012G22KT P6SM BKN020=

USA.gov is the U.S. government's official web portal to all federal, state and local government web resources and services.